Terminal Aerodrome Forecast
Issued by NWS North Platte, NE

Home | Current Version | Previous Version | Text Only | Print | Product List | Glossary Off
Versions: 1 2 3 4 5 6 7 8 9 10 11 12 13 14 15 16 17

000
FTUS43 KLBF 230434 AAA
TAFVTN
TAF AMD
KVTN 230434Z 2305/2324 29013G20KT P6SM FEW030 SCT100
      TEMPO 2309/2311 -SHRA BKN100
     FM231100 25008KT P6SM BKN120
     FM231400 29006KT P6SM SCT250
     FM232000 24007KT P6SM SKC=

USA.gov is the U.S. government's official web portal to all federal, state and local government web resources and services.